Aviation Digital Data Service (ADDS)

Output produced by TAFs form (0843 UTC 21 October 2014)
found at http://aviationweather.gov/adds/tafs/
 
KPUB 210520Z 2106/2206 07008KT P6SM SKC 
     FM211000 VRB06KT P6SM FEW020 SCT200 
     FM211900 14009KT P6SM SCT110 SCT150 
     FM220200 VRB06KT P6SM BKN150